PWSweather.com
Personal Weather Stations
Station Observations
KCOWOODL7
North Of Dinosaur Center, Woodland Park, CO 80863

North Of Dinosaur CenterWoodland Park, CO 80863

Lat: 38.998056, Lon: -105.050833

Elevation: 8555

Station Type: Ambient WS-2095

High Low Average
Temperature 61.5°F16.4°C 32.7°F0.4°C 46.3°F7.9°C
Dew Point 22.6°F-5.2°C 8.6°F-13.0°C 15.3°F-9.3°C
Winds 7.4 mph 11.9 kmh Calm Calm 3.0 mph SW4.8 kmh SW
Wind Gusts 17.4 mph28.0 kmh -- 8.0 mph12.9 kmh
Humidity 52% 17% 30%
Pressure 30.09 in1019.0 mb 29.98 in1015.2 mb -
Precipitation 0.00 in0.0 mm - -
Hour Temp Dew Point Humidity Winds Wind Gusts Pressure Precip Precip Rate Daily Precip Total
12:19 AM 34.0°F1.1°C 17.7°F-7.9°C 51% 2.7 mph W4.3 kmh W 5.4 mph8.7 kmh 30.02 in1016.6 mb 0.00 in0.0 mm 0.00 in0.0 mm 0.00 in0.0 mm
12:49 AM 33.1°F0.6°C 17.3°F-8.2°C 52% 2.7 mph SW4.3 kmh SW 5.4 mph8.7 kmh 30.02 in1016.6 mb 0.00 in0.0 mm 0.00 in0.0 mm 0.00 in0.0 mm
01:19 AM 32.9°F0.5°C 17.2°F-8.2°C 52% 2.7 mph SW4.3 kmh SW 4.0 mph6.4 kmh 30.01 in1016.3 mb 0.00 in0.0 mm 0.00 in0.0 mm 0.00 in0.0 mm
01:49 AM 32.7°F0.4°C 16.6°F-8.6°C 51% 4.0 mph W6.4 kmh W 7.4 mph11.9 kmh 30.00 in1015.9 mb 0.00 in0.0 mm 0.00 in0.0 mm 0.00 in0.0 mm
02:19 AM 33.3°F0.7°C 16.1°F-8.8°C 49% 4.7 mph N7.6 kmh N 6.0 mph9.7 kmh 29.99 in1015.6 mb 0.00 in0.0 mm 0.00 in0.0 mm 0.00 in0.0 mm
02:49 AM 32.7°F0.4°C 15.6°F-9.1°C 49% 2.7 mph W4.3 kmh W 4.0 mph6.4 kmh 29.98 in1015.2 mb 0.00 in0.0 mm 0.00 in0.0 mm 0.00 in0.0 mm
03:15 AM 32.7°F0.4°C 15.7°F-9.1°C 49% 3.4 mph NW5.5 kmh NW 8.1 mph13.0 kmh 29.99 in1015.6 mb 0.00 in0.0 mm 0.00 in0.0 mm 0.00 in0.0 mm
03:30 AM 33.1°F0.6°C 15.1°F-9.4°C 47% 2.0 mph W3.2 kmh W 8.1 mph13.0 kmh 29.98 in1015.2 mb 0.00 in0.0 mm 0.00 in0.0 mm 0.00 in0.0 mm
03:45 AM 32.9°F0.5°C 14.9°F-9.5°C 47% 2.0 mph SSW3.2 kmh SSW 10.1 mph16.3 kmh 29.99 in1015.6 mb 0.00 in0.0 mm 0.00 in0.0 mm 0.00 in0.0 mm
04:00 AM 33.3°F0.7°C 13.7°F-10.2°C 44% 2.0 mph SW3.2 kmh SW 7.4 mph11.9 kmh 29.99 in1015.6 mb 0.00 in0.0 mm 0.00 in0.0 mm 0.00 in0.0 mm
04:15 AM 33.1°F0.6°C 14.1°F-9.9°C 45% 3.4 mph SSW5.5 kmh SSW 6.7 mph10.8 kmh 29.99 in1015.6 mb 0.00 in0.0 mm 0.00 in0.0 mm 0.00 in0.0 mm
04:30 AM 34.0°F1.1°C 12.8°F-10.7°C 41% 0.7 mph WSW1.1 kmh WSW 10.1 mph16.3 kmh 30.00 in1015.9 mb 0.00 in0.0 mm 0.00 in0.0 mm 0.00 in0.0 mm
04:45 AM 32.9°F0.5°C 12.4°F-10.9°C 42% 3.4 mph WSW5.5 kmh WSW 7.4 mph11.9 kmh 29.99 in1015.6 mb 0.00 in0.0 mm 0.00 in0.0 mm 0.00 in0.0 mm
05:00 AM 33.1°F0.6°C 12.0°F-11.1°C 41% 2.0 mph WSW3.2 kmh WSW 8.7 mph14.0 kmh 30.00 in1015.9 mb 0.00 in0.0 mm 0.00 in0.0 mm 0.00 in0.0 mm
05:15 AM 33.4°F0.8°C 12.8°F-10.7°C 42% 4.0 mph W6.4 kmh W 8.1 mph13.0 kmh 30.00 in1015.9 mb 0.00 in0.0 mm 0.00 in0.0 mm 0.00 in0.0 mm
05:30 AM 33.1°F0.6°C 12.5°F-10.8°C 42% 4.0 mph W6.4 kmh W 7.4 mph11.9 kmh 30.00 in1015.9 mb 0.00 in0.0 mm 0.00 in0.0 mm 0.00 in0.0 mm
05:45 AM 32.7°F0.4°C 12.7°F-10.7°C 43% 3.4 mph W5.5 kmh W 6.7 mph10.8 kmh 30.00 in1015.9 mb 0.00 in0.0 mm 0.00 in0.0 mm 0.00 in0.0 mm
06:00 AM 33.3°F0.7°C 12.1°F-11.1°C 41% 2.7 mph WSW4.3 kmh WSW 11.4 mph18.3 kmh 30.01 in1016.3 mb 0.00 in0.0 mm 0.00 in0.0 mm 0.00 in0.0 mm
06:15 AM 32.7°F0.4°C 11.7°F-11.3°C 41% 3.4 mph WNW5.5 kmh WNW 8.1 mph13.0 kmh 30.02 in1016.6 mb 0.00 in0.0 mm 0.00 in0.0 mm 0.00 in0.0 mm
06:30 AM 33.3°F0.7°C 12.1°F-11.1°C 41% 1.3 mph WSW2.1 kmh WSW 8.1 mph13.0 kmh 30.02 in1016.6 mb 0.00 in0.0 mm 0.00 in0.0 mm 0.00 in0.0 mm
06:45 AM 34.0°F1.1°C 11.7°F-11.3°C 39% 5.4 mph W8.7 kmh W 12.8 mph20.6 kmh 30.02 in1016.6 mb 0.00 in0.0 mm 0.00 in0.0 mm 0.00 in0.0 mm
07:00 AM 35.2°F1.8°C 10.4°F-12.0°C 35% 4.0 mph WSW6.4 kmh WSW 11.4 mph18.3 kmh 30.03 in1016.9 mb 0.00 in0.0 mm 0.00 in0.0 mm 0.00 in0.0 mm
07:15 AM 36.3°F2.4°C 8.6°F-13.0°C 31% 2.0 mph WSW3.2 kmh WSW 10.1 mph16.3 kmh 30.03 in1016.9 mb 0.00 in0.0 mm 0.00 in0.0 mm 0.00 in0.0 mm
07:30 AM 37.0°F2.8°C 10.0°F-12.2°C 32% 3.4 mph SW5.5 kmh SW 8.7 mph14.0 kmh 30.04 in1017.3 mb 0.00 in0.0 mm 0.00 in0.0 mm 0.00 in0.0 mm
07:45 AM 37.6°F3.1°C 11.1°F-11.6°C 33% 4.7 mph WSW7.6 kmh WSW 10.7 mph17.2 kmh 30.03 in1016.9 mb 0.00 in0.0 mm 0.00 in0.0 mm 0.00 in0.0 mm
08:00 AM 38.8°F3.8°C 12.2°F-11.0°C 33% 0.7 mph SW1.1 kmh SW 8.1 mph13.0 kmh 30.03 in1016.9 mb 0.00 in0.0 mm 0.00 in0.0 mm 0.00 in0.0 mm
08:15 AM 39.7°F4.3°C 11.6°F-11.3°C 31% 5.4 mph SW8.7 kmh SW 11.4 mph18.3 kmh 30.04 in1017.3 mb 0.00 in0.0 mm 0.00 in0.0 mm 0.00 in0.0 mm
08:30 AM 39.9°F4.4°C 11.0°F-11.7°C 30% 4.7 mph WSW7.6 kmh WSW 8.7 mph14.0 kmh 30.03 in1016.9 mb 0.00 in0.0 mm 0.00 in0.0 mm 0.00 in0.0 mm
08:45 AM 41.0°F5.0°C 11.2°F-11.6°C 29% 2.7 mph SW4.3 kmh SW 12.8 mph20.6 kmh 30.04 in1017.3 mb 0.00 in0.0 mm 0.00 in0.0 mm 0.00 in0.0 mm
09:00 AM 41.4°F5.2°C 12.3°F-10.9°C 30% 4.0 mph SW6.4 kmh SW 11.4 mph18.3 kmh 30.04 in1017.3 mb 0.00 in0.0 mm 0.00 in0.0 mm 0.00 in0.0 mm
09:15 AM 42.6°F5.9°C 14.1°F-9.9°C 31% 3.4 mph W5.5 kmh W 11.4 mph18.3 kmh 30.03 in1016.9 mb 0.00 in0.0 mm 0.00 in0.0 mm 0.00 in0.0 mm
09:30 AM 42.8°F6.0°C 12.8°F-10.7°C 29% 2.7 mph SSW4.3 kmh SSW 10.1 mph16.3 kmh 30.03 in1016.9 mb 0.00 in0.0 mm 0.00 in0.0 mm 0.00 in0.0 mm
09:45 AM 43.9°F6.6°C 10.4°F-12.0°C 25% 6.0 mph WSW9.7 kmh WSW 13.4 mph21.6 kmh 30.04 in1017.3 mb 0.00 in0.0 mm 0.00 in0.0 mm 0.00 in0.0 mm
10:00 AM 45.5°F7.5°C 10.8°F-11.8°C 24% 6.0 mph W9.7 kmh W 14.8 mph23.8 kmh 30.04 in1017.3 mb 0.00 in0.0 mm 0.00 in0.0 mm 0.00 in0.0 mm
10:15 AM 47.1°F8.4°C 15.7°F-9.1°C 28% 3.4 mph WNW5.5 kmh WNW 12.1 mph19.5 kmh 30.03 in1016.9 mb 0.00 in0.0 mm 0.00 in0.0 mm 0.00 in0.0 mm
10:30 AM 48.4°F9.1°C 16.8°F-8.4°C 28% 4.7 mph W7.6 kmh W 6.7 mph10.8 kmh 30.03 in1016.9 mb 0.00 in0.0 mm 0.00 in0.0 mm 0.00 in0.0 mm
10:45 AM 48.7°F9.3°C 16.3°F-8.7°C 27% 5.4 mph WSW8.7 kmh WSW 12.1 mph19.5 kmh 30.03 in1016.9 mb 0.00 in0.0 mm 0.00 in0.0 mm 0.00 in0.0 mm
11:00 AM 50.2°F10.1°C 15.7°F-9.1°C 25% 4.0 mph SSW6.4 kmh SSW 6.7 mph10.8 kmh 30.03 in1016.9 mb 0.00 in0.0 mm 0.00 in0.0 mm 0.00 in0.0 mm
11:15 AM 49.8°F9.9°C 14.5°F-9.7°C 24% 7.4 mph WSW11.9 kmh WSW 12.1 mph19.5 kmh 30.03 in1016.9 mb 0.00 in0.0 mm 0.00 in0.0 mm 0.00 in0.0 mm
11:30 AM 52.0°F11.1°C 14.3°F-9.8°C 22% 1.3 mph SSE2.1 kmh SSE 6.0 mph9.7 kmh 30.04 in1017.3 mb 0.00 in0.0 mm 0.00 in0.0 mm 0.00 in0.0 mm
11:45 AM 53.2°F11.8°C 17.4°F-8.1°C 24% 4.0 mph SE6.4 kmh SE 10.7 mph17.2 kmh 30.03 in1016.9 mb 0.00 in0.0 mm 0.00 in0.0 mm 0.00 in0.0 mm
12:00 PM 54.0°F12.2°C 17.0°F-8.3°C 23% 4.0 mph W6.4 kmh W 8.7 mph14.0 kmh 30.03 in1016.9 mb 0.00 in0.0 mm 0.00 in0.0 mm 0.00 in0.0 mm
12:15 PM 54.3°F12.4°C 15.2°F-9.3°C 21% 2.7 mph SSW4.3 kmh SSW 10.1 mph16.3 kmh 30.03 in1016.9 mb 0.00 in0.0 mm 0.00 in0.0 mm 0.00 in0.0 mm
12:30 PM 53.4°F11.9°C 13.4°F-10.3°C 20% 4.0 mph WSW6.4 kmh WSW 12.1 mph19.5 kmh 30.03 in1016.9 mb 0.00 in0.0 mm 0.00 in0.0 mm 0.00 in0.0 mm
12:45 PM 55.2°F12.9°C 13.7°F-10.2°C 19% 3.4 mph SW5.5 kmh SW 10.7 mph17.2 kmh 30.03 in1016.9 mb 0.00 in0.0 mm 0.00 in0.0 mm 0.00 in0.0 mm
01:00 PM 54.9°F12.7°C 13.4°F-10.3°C 19% 4.0 mph SW6.4 kmh SW 10.1 mph16.3 kmh 30.03 in1016.9 mb 0.00 in0.0 mm 0.00 in0.0 mm 0.00 in0.0 mm
01:15 PM 55.2°F12.9°C 13.7°F-10.2°C 19% 4.7 mph WSW7.6 kmh WSW 11.4 mph18.3 kmh 30.03 in1016.9 mb 0.00 in0.0 mm 0.00 in0.0 mm 0.00 in0.0 mm
01:30 PM 57.0°F13.9°C 18.6°F-7.4°C 22% 4.7 mph WSW7.6 kmh WSW 14.8 mph23.8 kmh 30.03 in1016.9 mb 0.00 in0.0 mm 0.00 in0.0 mm 0.00 in0.0 mm
01:45 PM 59.0°F15.0°C 18.0°F-7.8°C 20% 6.0 mph SW9.7 kmh SW 17.4 mph28.0 kmh 30.03 in1016.9 mb 0.00 in0.0 mm 0.00 in0.0 mm 0.00 in0.0 mm
02:00 PM 57.4°F14.1°C 16.7°F-8.5°C 20% 5.4 mph W8.7 kmh W 12.1 mph19.5 kmh 30.02 in1016.6 mb 0.00 in0.0 mm 0.00 in0.0 mm 0.00 in0.0 mm
02:15 PM 59.4°F15.2°C 18.3°F-7.6°C 20% 4.7 mph WSW7.6 kmh WSW 15.4 mph24.8 kmh 30.02 in1016.6 mb 0.00 in0.0 mm 0.00 in0.0 mm 0.00 in0.0 mm
02:30 PM 58.1°F14.5°C 17.3°F-8.2°C 20% 2.7 mph SW4.3 kmh SW 11.4 mph18.3 kmh 30.02 in1016.6 mb 0.00 in0.0 mm 0.00 in0.0 mm 0.00 in0.0 mm
02:45 PM 60.4°F15.8°C 16.8°F-8.4°C 18% 5.4 mph SW8.7 kmh SW 12.8 mph20.6 kmh 30.02 in1016.6 mb 0.00 in0.0 mm 0.00 in0.0 mm 0.00 in0.0 mm
03:15 PM 57.7°F14.3°C 15.8°F-9.0°C 19% 2.7 mph SSW4.3 kmh SSW 10.1 mph16.3 kmh 30.03 in1016.9 mb 0.00 in0.0 mm 0.00 in0.0 mm 0.00 in0.0 mm
03:30 PM 58.6°F14.8°C 18.8°F-7.3°C 21% 2.0 mph W3.2 kmh W 8.1 mph13.0 kmh 30.02 in1016.6 mb 0.00 in0.0 mm 0.00 in0.0 mm 0.00 in0.0 mm
03:45 PM 56.1°F13.4°C 16.7°F-8.5°C 21% 2.0 mph WNW3.2 kmh WNW 10.1 mph16.3 kmh 30.02 in1016.6 mb 0.00 in0.0 mm 0.00 in0.0 mm 0.00 in0.0 mm
04:00 PM 60.6°F15.9°C 19.4°F-7.0°C 20% 3.4 mph WSW5.5 kmh WSW 11.4 mph18.3 kmh 30.01 in1016.3 mb 0.00 in0.0 mm 0.00 in0.0 mm 0.00 in0.0 mm
04:15 PM 55.8°F13.2°C 16.4°F-8.7°C 21% 6.0 mph WSW9.7 kmh WSW 13.4 mph21.6 kmh 30.01 in1016.3 mb 0.00 in0.0 mm 0.00 in0.0 mm 0.00 in0.0 mm
04:30 PM 61.5°F16.4°C 18.9°F-7.3°C 19% 6.0 mph SSE9.7 kmh SSE 11.4 mph18.3 kmh 30.01 in1016.3 mb 0.00 in0.0 mm 0.00 in0.0 mm 0.00 in0.0 mm
04:45 PM 59.5°F15.3°C 18.5°F-7.5°C 20% 3.4 mph WSW5.5 kmh WSW 12.8 mph20.6 kmh 30.01 in1016.3 mb 0.00 in0.0 mm 0.00 in0.0 mm 0.00 in0.0 mm
05:00 PM 55.9°F13.3°C 14.3°F-9.8°C 19% 5.4 mph W8.7 kmh W 8.1 mph13.0 kmh 30.02 in1016.6 mb 0.00 in0.0 mm 0.00 in0.0 mm 0.00 in0.0 mm
05:15 PM 55.2°F12.9°C 12.5°F-10.8°C 18% 3.4 mph S5.5 kmh S 8.1 mph13.0 kmh 30.01 in1016.3 mb 0.00 in0.0 mm 0.00 in0.0 mm 0.00 in0.0 mm
05:30 PM 55.6°F13.1°C 15.2°F-9.3°C 20% Calm Calm 6.0 mph9.7 kmh 30.01 in1016.3 mb 0.00 in0.0 mm 0.00 in0.0 mm 0.00 in0.0 mm
05:45 PM 54.5°F12.5°C 10.6°F-11.9°C 17% 3.4 mph WNW5.5 kmh WNW 8.1 mph13.0 kmh 30.01 in1016.3 mb 0.00 in0.0 mm 0.00 in0.0 mm 0.00 in0.0 mm
06:00 PM 54.9°F12.7°C 12.2°F-11.0°C 18% 1.3 mph WSW2.1 kmh WSW 6.7 mph10.8 kmh 30.01 in1016.3 mb 0.00 in0.0 mm 0.00 in0.0 mm 0.00 in0.0 mm
06:15 PM 55.0°F12.8°C 11.0°F-11.7°C 17% 2.0 mph W3.2 kmh W 7.4 mph11.9 kmh 30.00 in1015.9 mb 0.00 in0.0 mm 0.00 in0.0 mm 0.00 in0.0 mm
06:30 PM 56.5°F13.6°C 14.7°F-9.6°C 19% 6.7 mph WSW10.8 kmh WSW 10.7 mph17.2 kmh 30.01 in1016.3 mb 0.00 in0.0 mm 0.00 in0.0 mm 0.00 in0.0 mm
06:45 PM 57.4°F14.1°C 15.5°F-9.2°C 19% 2.0 mph WSW3.2 kmh WSW 8.7 mph14.0 kmh 30.01 in1016.3 mb 0.00 in0.0 mm 0.00 in0.0 mm 0.00 in0.0 mm
07:00 PM 56.5°F13.6°C 15.9°F-8.9°C 20% 2.7 mph W4.3 kmh W 8.1 mph13.0 kmh 30.02 in1016.6 mb 0.00 in0.0 mm 0.00 in0.0 mm 0.00 in0.0 mm
07:15 PM 55.8°F13.2°C 16.4°F-8.7°C 21% 2.0 mph WSW3.2 kmh WSW 11.4 mph18.3 kmh 30.02 in1016.6 mb 0.00 in0.0 mm 0.00 in0.0 mm 0.00 in0.0 mm
07:30 PM 54.5°F12.5°C 11.9°F-11.2°C 18% 3.4 mph W5.5 kmh W 6.7 mph10.8 kmh 30.02 in1016.6 mb 0.00 in0.0 mm 0.00 in0.0 mm 0.00 in0.0 mm
07:45 PM 53.1°F11.7°C 13.1°F-10.5°C 20% 2.0 mph W3.2 kmh W 6.0 mph9.7 kmh 30.03 in1016.9 mb 0.00 in0.0 mm 0.00 in0.0 mm 0.00 in0.0 mm
08:00 PM 51.6°F10.9°C 15.1°F-9.4°C 23% Calm Calm 6.0 mph9.7 kmh 30.04 in1017.3 mb 0.00 in0.0 mm 0.00 in0.0 mm 0.00 in0.0 mm
08:15 PM 50.4°F10.2°C 15.9°F-8.9°C 25% Calm Calm 4.0 mph6.4 kmh 30.04 in1017.3 mb 0.00 in0.0 mm 0.00 in0.0 mm 0.00 in0.0 mm
08:30 PM 49.3°F9.6°C 16.7°F-8.5°C 27% 1.3 mph W2.1 kmh W 3.4 mph5.5 kmh 30.04 in1017.3 mb 0.00 in0.0 mm 0.00 in0.0 mm 0.00 in0.0 mm
08:45 PM 48.9°F9.4°C 16.4°F-8.7°C 27% 0.7 mph WSW1.1 kmh WSW 2.7 mph4.3 kmh 30.04 in1017.3 mb 0.00 in0.0 mm 0.00 in0.0 mm 0.00 in0.0 mm
09:00 PM 47.5°F8.6°C 19.1°F-7.2°C 32% Calm Calm 3.4 mph5.5 kmh 30.05 in1017.6 mb 0.00 in0.0 mm 0.00 in0.0 mm 0.00 in0.0 mm
09:15 PM 45.3°F7.4°C 21.2°F-6.0°C 38% Calm Calm -- 30.05 in1017.6 mb 0.00 in0.0 mm 0.00 in0.0 mm 0.00 in0.0 mm
09:30 PM 44.1°F6.7°C 21.3°F-5.9°C 40% Calm Calm 1.3 mph2.1 kmh 30.06 in1017.9 mb 0.00 in0.0 mm 0.00 in0.0 mm 0.00 in0.0 mm
09:45 PM 43.5°F6.4°C 22.0°F-5.6°C 42% 0.7 mph N1.1 kmh N 2.0 mph3.2 kmh 30.06 in1017.9 mb 0.00 in0.0 mm 0.00 in0.0 mm 0.00 in0.0 mm
10:00 PM 44.2°F6.8°C 22.0°F-5.6°C 41% Calm Calm 1.3 mph2.1 kmh 30.07 in1018.3 mb 0.00 in0.0 mm 0.00 in0.0 mm 0.00 in0.0 mm
10:15 PM 43.2°F6.2°C 22.2°F-5.4°C 43% Calm Calm -- 30.07 in1018.3 mb 0.00 in0.0 mm 0.00 in0.0 mm 0.00 in0.0 mm
10:30 PM 43.2°F6.2°C 22.2°F-5.4°C 43% Calm Calm -- 30.07 in1018.3 mb 0.00 in0.0 mm 0.00 in0.0 mm 0.00 in0.0 mm
10:45 PM 41.5°F5.3°C 21.8°F-5.7°C 45% Calm Calm -- 30.09 in1019.0 mb 0.00 in0.0 mm 0.00 in0.0 mm 0.00 in0.0 mm
11:00 PM 42.4°F5.8°C 22.6°F-5.2°C 45% Calm Calm -- 30.09 in1019.0 mb 0.00 in0.0 mm 0.00 in0.0 mm 0.00 in0.0 mm
11:15 PM 41.7°F5.4°C 22.5°F-5.3°C 46% Calm Calm -- 30.09 in1019.0 mb 0.00 in0.0 mm 0.00 in0.0 mm 0.00 in0.0 mm
11:30 PM 41.7°F5.4°C 22.0°F-5.6°C 45% Calm Calm -- 30.09 in1019.0 mb 0.00 in0.0 mm 0.00 in0.0 mm 0.00 in0.0 mm
11:49 PM 40.8°F4.9°C 22.6°F-5.2°C 48% Calm Calm -- 30.09 in1019.0 mb 0.00 in0.0 mm 0.00 in0.0 mm 0.00 in0.0 mm